Time;durP1;ratioP1;P1;durP2;ratioP2;P2;SDS_P1;SDS_P2;PMS_P1;PMS_P2;Temp;Humidity;BMP_temperature;BMP_pressure;BME280_temperature;BME280_humidity;BME280_pressure;Samples;Min_cycle;Max_cycle;Signal;HPM_P1;HPM_P2
2022/10/23 00:02:11;;;;;;;;;;;;;;;;;;5018875;28;19969;-86
2022/10/23 00:04:43;;;;;;;;;;;;;;;;;;5007984;28;19964;-89
2022/10/23 00:07:09;;;;;;;;;;;;;;;;;;5014912;28;19913;-91
2022/10/23 00:09:46;;;;;;;;;;;;;;;;;;5006665;28;19908;-91
2022/10/23 00:12:18;;;;;;;;;;;;;;;;;;5031652;28;19920;-88
2022/10/23 00:14:51;;;;;;;;;;;;;;;;;;5027969;28;19913;-91
2022/10/23 00:17:23;;;;;;;;;;;;;;;;;;5010029;28;19995;-89
2022/10/23 00:23:29;;;;;;;;;;;;;;;;;;5025939;28;20282;-90
2022/10/23 00:25:56;;;;;;;;;;;;;;;;;;5026938;28;19924;-91
2022/10/23 00:28:21;;;;;;;;;;;;;;;;;;5029004;28;19917;-91
2022/10/23 00:30:50;;;;;;;;;;;;;;;;;;5031806;28;19949;-86
2022/10/23 00:33:16;;;;;;;;;;;;;;;;;;5023084;28;19921;-88
2022/10/23 00:35:44;;;;;;;;;;;;;;;;;;5006233;28;19972;-88
2022/10/23 00:38:18;;;;;;;;;;;;;;;;;;4998610;28;19918;-89
2022/10/23 00:40:51;;;;;;;;;;;;;;;;;;5025801;28;20610;-89
2022/10/23 00:43:16;;;;;;;;;;;;;;;;;;5000026;28;19917;-92
2022/10/23 00:45:41;;;;;;;;;;;;;;;;;;5005671;28;19921;-91
2022/10/23 00:48:30;;;;;;;;;;;;;;;;;;5004470;28;19913;-89
2022/10/23 00:50:54;;;;;;;;;;;;;;;;;;5024225;28;19922;-90
2022/10/23 00:53:20;;;;;;;;;;;;;;;;;;5018580;28;19917;-92
2022/10/23 00:55:46;;;;;;;;;;;;;;;;;;5019983;28;19917;-88
2022/10/23 00:58:14;;;;;;;;;;;;;;;;;;5026412;28;20348;-91
2022/10/23 01:00:40;;;;;;;;;;;;;;;;;;5026130;28;19923;-91
2022/10/23 01:03:08;;;;;;;;;;;;;;;;;;5019673;28;19924;-88
2022/10/23 01:05:42;;;;;;;;;;;;;;;;;;5023944;28;20044;-89
2022/10/23 01:08:10;;;;;;;;;;;;;;;;;;5003605;28;20390;-89
2022/10/23 01:10:51;;;;;;;;;;;;;;;;;;5003978;28;19933;-91
2022/10/23 01:13:21;;;;;;;;;;;;;;;;;;5017940;28;19918;-90
2022/10/23 01:16:06;;;;;;;;;;;;;;;;;;5021359;28;19913;-89
2022/10/23 01:18:31;;;;;;;;;;;;;;;;;;5002425;28;20330;-90
2022/10/23 01:20:59;;;;;;;;;;;;;;;;;;5006062;28;19945;-89
2022/10/23 01:23:24;;;;;;;;;;;;;;;;;;5001238;28;19921;-90
2022/10/23 01:26:02;;;;;;;;;;;;;;;;;;4987357;28;20423;-90
2022/10/23 01:28:30;;;;;;;;;;;;;;;;;;4984256;28;20464;-89
2022/10/23 01:31:02;;;;;;;;;;;;;;;;;;5002709;28;19993;-90
2022/10/23 01:33:32;;;;;;;;;;;;;;;;;;5003520;28;19953;-90
2022/10/23 01:35:57;;;;;;;;;;;;;;;;;;4987622;28;19953;-91
2022/10/23 01:38:25;;;;;;;;;;;;;;;;;;4983745;28;20020;-91
2022/10/23 01:40:57;;;;;;;;;;;;;;;;;;5001177;28;20390;-89
2022/10/23 01:43:23;;;;;;;;;;;;;;;;;;5002893;28;19927;-90
2022/10/23 01:45:49;;;;;;;;;;;;;;;;;;4999977;28;20250;-90
2022/10/23 01:51:01;;;;;;;;;;;;;;;;;;4955043;28;19927;-89
2022/10/23 01:53:32;;;;;;;;;;;;;;;;;;4961070;28;19913;-87
2022/10/23 01:55:57;;;;;;;;;;;;;;;;;;4931524;28;20011;-89
2022/10/23 01:58:23;;;;;;;;;;;;;;;;;;4962004;28;19950;-88
2022/10/23 02:00:49;;;;;;;;;;;;;;;;;;4944308;29;19971;-91
2022/10/23 02:03:17;;;;;;;;;;;;;;;;;;4924810;29;19929;-89
2022/10/23 02:05:43;;;;;;;;;;;;;;;;;;4921578;29;20022;-91
2022/10/23 02:08:11;;;;;;;;;;;;;;;;;;4928159;29;19919;-87
2022/10/23 02:10:50;;;;;;;;;;;;;;;;;;4948495;29;19930;-89
2022/10/23 02:13:37;;;;;;;;;;;;;;;;;;4942221;29;19953;-91
2022/10/23 02:16:05;;;;;;;;;;;;;;;;;;4954682;28;20002;-88
2022/10/23 02:18:31;;;;;;;;;;;;;;;;;;4970958;28;20025;-87
2022/10/23 02:24:13;;;;;;;;;;;;;;;;;;4960798;28;19933;-91
2022/10/23 02:26:41;;;;;;;;;;;;;;;;;;4961884;29;19918;-89
2022/10/23 02:29:06;;;;;;;;;;;;;;;;;;4962268;28;19936;-91
2022/10/23 02:31:32;;;;;;;;;;;;;;;;;;4971920;28;19922;-90
2022/10/23 02:34:02;;;;;;;;;;;;;;;;;;4966445;28;19918;-92
2022/10/23 02:36:28;;;;;;;;;;;;;;;;;;4983264;28;19965;-90
2022/10/23 02:38:53;;;;;;;;;;;;;;;;;;4972009;28;19942;-89
2022/10/23 02:41:19;;;;;;;;;;;;;;;;;;4981156;28;19921;-92
2022/10/23 02:43:45;;;;;;;;;;;;;;;;;;5005528;28;19979;-89
2022/10/23 02:46:13;;;;;;;;;;;;;;;;;;4985192;28;19922;-90
2022/10/23 02:48:39;;;;;;;;;;;;;;;;;;4975754;28;19925;-90
2022/10/23 02:51:04;;;;;;;;;;;;;;;;;;4983469;28;20292;-88
2022/10/23 02:53:30;;;;;;;;;;;;;;;;;;5006064;28;19917;-86
2022/10/23 02:55:55;;;;;;;;;;;;;;;;;;4988599;28;19918;-88
2022/10/23 02:58:21;;;;;;;;;;;;;;;;;;4986210;28;19964;-88
2022/10/23 03:00:46;;;;;;;;;;;;;;;;;;4995452;28;19914;-88
2022/10/23 03:03:15;;;;;;;;;;;;;;;;;;4999488;28;19919;-87
2022/10/23 03:05:41;;;;;;;;;;;;;;;;;;4990054;28;19917;-87
2022/10/23 03:08:06;;;;;;;;;;;;;;;;;;4985969;28;19906;-88
2022/10/23 03:10:39;;;;;;;;;;;;;;;;;;5016715;28;19905;-87
2022/10/23 03:13:04;;;;;;;;;;;;;;;;;;5006325;28;19921;-89
2022/10/23 03:15:30;;;;;;;;;;;;;;;;;;5017508;28;19960;-91
2022/10/23 03:17:56;;;;;;;;;;;;;;;;;;4978316;28;19929;-91
2022/10/23 03:20:21;;;;;;;;;;;;;;;;;;4983998;28;20521;-89
2022/10/23 03:22:49;;;;;;;;;;;;;;;;;;4986162;28;19921;-90
2022/10/23 03:25:15;;;;;;;;;;;;;;;;;;4995274;28;19929;-90
2022/10/23 03:27:50;;;;;;;;;;;;;;;;;;4992789;28;20263;-92
2022/10/23 03:30:16;;;;;;;;;;;;;;;;;;5015987;28;19924;-91
2022/10/23 03:32:41;;;;;;;;;;;;;;;;;;5004308;28;19940;-91
2022/10/23 03:35:14;;;;;;;;;;;;;;;;;;5005416;28;20830;-91
2022/10/23 03:37:39;;;;;;;;;;;;;;;;;;5002030;28;19914;-89
2022/10/23 03:40:09;;;;;;;;;;;;;;;;;;5016985;28;20020;-89
2022/10/23 03:42:40;;;;;;;;;;;;;;;;;;5017613;28;19914;-89
2022/10/23 03:45:05;;;;;;;;;;;;;;;;;;5012694;28;19921;-91
2022/10/23 03:47:34;;;;;;;;;;;;;;;;;;5019568;28;19917;-88
2022/10/23 03:49:59;;;;;;;;;;;;;;;;;;5023886;28;20383;-89
2022/10/23 03:52:24;;;;;;;;;;;;;;;;;;5037023;28;20008;-91
2022/10/23 03:54:52;;;;;;;;;;;;;;;;;;5021129;28;19956;-89
2022/10/23 03:57:18;;;;;;;;;;;;;;;;;;5016744;28;19921;-92
2022/10/23 03:59:46;;;;;;;;;;;;;;;;;;5028231;28;19917;-90
2022/10/23 04:02:12;;;;;;;;;;;;;;;;;;5020014;28;19917;-91
2022/10/23 04:04:38;;;;;;;;;;;;;;;;;;5019742;28;19923;-91
2022/10/23 04:07:04;;;;;;;;;;;;;;;;;;5019167;28;19957;-90
2022/10/23 04:09:36;;;;;;;;;;;;;;;;;;5018458;28;20369;-90
2022/10/23 04:12:01;;;;;;;;;;;;;;;;;;5013637;28;19939;-90
2022/10/23 04:14:30;;;;;;;;;;;;;;;;;;5010282;28;20362;-90
2022/10/23 04:16:57;;;;;;;;;;;;;;;;;;5000871;28;19913;-91
2022/10/23 04:19:26;;;;;;;;;;;;;;;;;;5020087;28;19917;-88
2022/10/23 04:21:51;;;;;;;;;;;;;;;;;;5018335;28;20012;-90
2022/10/23 04:24:17;;;;;;;;;;;;;;;;;;5018771;28;19968;-91
2022/10/23 04:26:43;;;;;;;;;;;;;;;;;;4974350;28;19984;-89
2022/10/23 04:29:09;;;;;;;;;;;;;;;;;;4969099;28;19922;-91
2022/10/23 04:31:39;;;;;;;;;;;;;;;;;;4959645;28;20498;-92
2022/10/23 04:34:12;;;;;;;;;;;;;;;;;;4957411;28;19933;-93
2022/10/23 04:36:38;;;;;;;;;;;;;;;;;;4954222;28;20527;-87
2022/10/23 04:39:03;;;;;;;;;;;;;;;;;;4954477;28;19929;-88
2022/10/23 04:41:37;;;;;;;;;;;;;;;;;;4959890;28;19972;-91
2022/10/23 04:44:07;;;;;;;;;;;;;;;;;;4960622;28;19922;-89
2022/10/23 04:46:34;;;;;;;;;;;;;;;;;;4955514;28;20008;-89
2022/10/23 04:49:00;;;;;;;;;;;;;;;;;;4950421;28;19973;-92
2022/10/23 04:51:25;;;;;;;;;;;;;;;;;;4964262;28;20018;-90
2022/10/23 04:53:50;;;;;;;;;;;;;;;;;;4957365;28;19977;-90
2022/10/23 04:56:19;;;;;;;;;;;;;;;;;;4960248;28;19914;-89
2022/10/23 04:58:46;;;;;;;;;;;;;;;;;;5010529;28;19959;-90
2022/10/23 05:01:12;;;;;;;;;;;;;;;;;;5022261;28;20442;-92
2022/10/23 05:03:38;;;;;;;;;;;;;;;;;;5004031;28;19923;-91
2022/10/23 05:06:04;;;;;;;;;;;;;;;;;;5016795;28;20238;-89
2022/10/23 05:08:29;;;;;;;;;;;;;;;;;;5013386;28;20039;-90
2022/10/23 05:10:55;;;;;;;;;;;;;;;;;;4992834;28;20320;-90
2022/10/23 05:13:20;;;;;;;;;;;;;;;;;;4995526;28;19947;-91
2022/10/23 05:15:46;;;;;;;;;;;;;;;;;;5002309;28;19924;-90
2022/10/23 05:24:32;;;;;;;;;;;;;;;;;;5023840;28;19955;-92
2022/10/23 05:26:58;;;;;;;;;;;;;;;;;;5021343;28;19913;-89
2022/10/23 05:32:31;;;;;;;;;;;;;;;;;;5014794;28;19980;-88
2022/10/23 05:35:09;;;;;;;;;;;;;;;;;;;;;
2022/10/23 05:37:35;;;;;;;;;;;;;;;;;;4995829;28;19913;-94
2022/10/23 05:40:00;;;;;;;;;;;;;;;;;;5005283;28;19922;-90
2022/10/23 05:42:26;;;;;;;;;;;;;;;;;;5025286;28;19944;-90
2022/10/23 05:44:54;;;;;;;;;;;;;;;;;;5028813;28;19917;-90
2022/10/23 05:54:23;;;;;;;;;;;;;;;;;;5020339;28;19971;-91
2022/10/23 06:00:45;;;;;;;;;;;;;;;;;;4987258;28;20524;-89
2022/10/23 06:03:14;;;;;;;;;;;;;;;;;;5006962;28;19917;-88
2022/10/23 06:05:43;;;;;;;;;;;;;;;;;;5022776;28;19921;-88
2022/10/23 06:11:31;;;;;;;;;;;;;;;;;;5021621;28;19924;-90
2022/10/23 06:13:59;;;;;;;;;;;;;;;;;;5023057;28;19920;-89
2022/10/23 06:16:27;;;;;;;;;;;;;;;;;;5006380;28;19971;-89
2022/10/23 06:22:19;;;;;;;;;;;;;;;;;;4957526;28;19932;-91
2022/10/23 06:24:50;;;;;;;;;;;;;;;;;;5003227;28;19936;-89
2022/10/23 06:27:15;;;;;;;;;;;;;;;;;;5019214;28;19917;-90
2022/10/23 06:29:46;;;;;;;;;;;;;;;;;;5024342;28;19921;-90
2022/10/23 06:32:12;;;;;;;;;;;;;;;;;;5009041;28;19928;-90
2022/10/23 06:41:24;;;;;;;;;;;;;;;;;;5141688;22;19934;-61
2022/10/23 06:43:50;;;;;;;;;;;;;;;;;;5070294;28;19979;-60
2022/10/23 06:46:15;;;;;;;;;;;;;;;;;;5054103;28;19962;-60
2022/10/23 06:51:57;;;;;;;;;;;;;;;;;;5083999;28;20003;-60
2022/10/23 06:57:40;;;;;;;;;;;;;;;;;;5078374;28;19938;-59
2022/10/23 07:00:05;;;;;;;;;;;;;;;;;;5065583;28;20410;-61
2022/10/23 07:02:49;;;;;;;;;;;;;;;;;;5049577;28;20567;-60
2022/10/23 07:05:19;;;;;;;;;;;;;;;;;;5068628;28;19923;-60
2022/10/23 07:07:45;;;;;;;;;;;;;;;;;;5058662;28;20058;-61
2022/10/23 07:10:14;;;;;;;;;;;;;;;;;;5085993;28;19916;-60
2022/10/23 07:12:42;;;;;;;;;;;;;;;;;;5065057;28;19920;-59
2022/10/23 07:15:10;;;;;;;;;;;;;;;;;;5089681;28;19927;-60
2022/10/23 07:17:36;;;;;;;;;;;;;;;;;;5051956;28;20004;-60
2022/10/23 07:20:04;;;;;;;;;;;;;;;;;;5088748;28;19939;-60
2022/10/23 07:22:29;;;;;;;;;;;;;;;;;;5086774;28;20035;-60
2022/10/23 07:24:54;;;;;;;;;;;;;;;;;;5070097;28;19920;-61
2022/10/23 07:30:41;;;;;;;;;;;;;;;;;;5084450;28;20005;-60
2022/10/23 07:33:11;;;;;;;;;;;;;;;;;;5065431;28;19924;-60
2022/10/23 07:35:36;;;;;;;;;;;;;;;;;;5067462;28;19930;-61
2022/10/23 07:38:02;;;;;;;;;;;;;;;;;;5063680;28;19924;-61
2022/10/23 07:40:27;;;;;;;;;;;;;;;;;;5057156;28;19980;-60
2022/10/23 07:42:53;;;;;;;;;;;;;;;;;;5083399;28;19919;-60
2022/10/23 07:45:20;;;;;;;;;;;;;;;;;;5067103;28;20018;-61
2022/10/23 07:47:48;;;;;;;;;;;;;;;;;;5048710;28;19959;-62
2022/10/23 07:50:14;;;;;;;;;;;;;;;;;;5064702;28;20251;-62
2022/10/23 07:52:44;;;;;;;;;;;;;;;;;;5064049;28;20016;-61
2022/10/23 07:55:17;;;;;;;;;;;;;;;;;;5084310;28;20081;-60
2022/10/23 07:57:42;;;;;;;;;;;;;;;;;;5082574;28;20022;-61
2022/10/23 08:00:10;;;;;;;;;;;;;;;;;;5065697;28;19947;-62
2022/10/23 08:02:35;;;;;;;;;;;;;;;;;;5078243;28;20027;-60
2022/10/23 08:05:01;;;;;;;;;;;;;;;;;;5048002;28;21216;-63
2022/10/23 08:07:26;;;;;;;;;;;;;;;;;;5047572;28;19962;-61
2022/10/23 08:09:51;;;;;;;;;;;;;;;;;;5063451;28;19920;-61
2022/10/23 08:12:17;;;;;;;;;;;;;;;;;;5084726;28;19919;-62
2022/10/23 08:14:42;;;;;;;;;;;;;;;;;;5086382;28;19920;-63
2022/10/23 08:17:10;;;;;;;;;;;;;;;;;;5066679;28;19920;-62
2022/10/23 08:19:35;;;;;;;;;;;;;;;;;;5087458;28;19930;-62
2022/10/23 08:22:01;;;;;;;;;;;;;;;;;;5057559;28;19920;-62
2022/10/23 08:24:26;;;;;;;;;;;;;;;;;;5058228;28;19931;-62
2022/10/23 08:26:54;;;;;;;;;;;;;;;;;;5060286;28;19981;-62
2022/10/23 08:29:19;;;;;;;;;;;;;;;;;;5069060;28;19916;-60
2022/10/23 08:31:45;;;;;;;;;;;;;;;;;;5065136;28;20028;-61
2022/10/23 08:34:15;;;;;;;;;;;;;;;;;;5058590;28;19919;-61
2022/10/23 08:36:41;;;;;;;;;;;;;;;;;;5049431;28;20345;-61
2022/10/23 08:39:08;;;;;;;;;;;;;;;;;;5057321;28;21772;-62
2022/10/23 08:41:36;;;;;;;;;;;;;;;;;;5028592;28;19963;-61
2022/10/23 08:44:01;;;;;;;;;;;;;;;;;;5066045;28;20034;-62
2022/10/23 08:46:27;;;;;;;;;;;;;;;;;;5049870;28;19920;-61
2022/10/23 08:48:52;;;;;;;;;;;;;;;;;;5069037;28;19920;-61
2022/10/23 08:51:20;;;;;;;;;;;;;;;;;;5064498;28;20530;-62
2022/10/23 08:53:45;;;;;;;;;;;;;;;;;;5060473;28;19926;-62
2022/10/23 08:56:13;;;;;;;;;;;;;;;;;;5085565;28;19920;-62
2022/10/23 08:58:40;;;;;;;;;;;;;;;;;;5082248;28;19924;-63
2022/10/23 09:01:10;;;;;;;;;;;;;;;;;;5066907;28;19999;-62
2022/10/23 09:03:38;;;;;;;;;;;;;;;;;;5086031;28;20305;-62
2022/10/23 09:06:07;;;;;;;;;;;;;;;;;;5066351;28;19916;-62
2022/10/23 09:08:32;;;;;;;;;;;;;;;;;;5069504;28;19924;-63
2022/10/23 09:11:00;;;;;;;;;;;;;;;;;;5064722;28;19915;-61
2022/10/23 09:13:25;;;;;;;;;;;;;;;;;;5090229;28;19919;-64
2022/10/23 09:15:54;;;;;;;;;;;;;;;;;;5088575;28;19919;-61
2022/10/23 09:18:19;;;;;;;;;;;;;;;;;;5068685;28;19923;-62
2022/10/23 09:20:44;;;;;;;;;;;;;;;;;;5070508;28;19989;-62
2022/10/23 09:23:10;;;;;;;;;;;;;;;;;;5069041;28;20243;-62
2022/10/23 09:25:37;;;;;;;;;;;;;;;;;;5051992;28;20897;-62
2022/10/23 09:28:02;;;;;;;;;;;;;;;;;;5052089;28;19916;-62
2022/10/23 09:30:31;;;;;;;;;;;;;;;;;;5091103;28;19951;-62
2022/10/23 09:32:56;;;;;;;;;;;;;;;;;;5068717;28;19915;-62
2022/10/23 09:35:22;;;;;;;;;;;;;;;;;;5064899;28;19980;-63
2022/10/23 09:37:51;;;;;;;;;;;;;;;;;;5049454;28;19969;-62
2022/10/23 09:40:19;;;;;;;;;;;;;;;;;;5066955;28;19923;-63
2022/10/23 09:42:47;;;;;;;;;;;;;;;;;;5086816;27;20521;-62
2022/10/23 09:45:15;;;;;;;;;;;;;;;;;;5068857;28;20005;-62
2022/10/23 09:47:40;;;;;;;;;;;;;;;;;;5051449;28;20750;-62
2022/10/23 09:50:08;;;;;;;;;;;;;;;;;;5068485;28;19920;-62
2022/10/23 09:52:33;;;;;;;;;;;;;;;;;;5086024;28;20467;-62
2022/10/23 09:55:02;;;;;;;;;;;;;;;;;;5087487;28;22189;-62
2022/10/23 09:57:27;;;;;;;;;;;;;;;;;;5068372;28;19922;-62
2022/10/23 09:59:52;;;;;;;;;;;;;;;;;;5052051;28;19935;-62
2022/10/23 10:02:17;;;;;;;;;;;;;;;;;;5060400;28;20778;-62
2022/10/23 10:04:43;;;;;;;;;;;;;;;;;;5088015;28;19926;-63
2022/10/23 10:07:08;;;;;;;;;;;;;;;;;;5086952;28;19920;-65
2022/10/23 10:09:36;;;;;;;;;;;;;;;;;;5086049;28;19996;-62
2022/10/23 10:12:06;;;;;;;;;;;;;;;;;;5081622;28;19942;-62
2022/10/23 10:14:32;;;;;;;;;;;;;;;;;;5069939;28;19959;-62
2022/10/23 10:16:57;;;;;;;;;;;;;;;;;;5068523;28;20011;-61
2022/10/23 10:19:22;;;;;;;;;;;;;;;;;;5087724;28;19924;-62
2022/10/23 10:21:52;;;;;;;;;;;;;;;;;;5089245;28;19920;-63
2022/10/23 10:24:19;;;;;;;;;;;;;;;;;;5069068;28;19920;-61
2022/10/23 10:26:45;;;;;;;;;;;;;;;;;;5089071;28;19992;-62
2022/10/23 10:29:13;;;;;;;;;;;;;;;;;;5087426;28;19916;-62
2022/10/23 10:31:41;;;;;;;;;;;;;;;;;;5067261;28;19973;-61
2022/10/23 10:34:11;;;;;;;;;;;;;;;;;;5049101;28;19920;-62
2022/10/23 10:36:39;;;;;;;;;;;;;;;;;;5088427;28;19956;-62
2022/10/23 10:39:06;;;;;;;;;;;;;;;;;;5063533;28;21187;-64
2022/10/23 10:41:34;;;;;;;;;;;;;;;;;;5085362;28;19927;-61
2022/10/23 10:44:00;;;;;;;;;;;;;;;;;;5087867;28;19926;-62
2022/10/23 10:46:25;;;;;;;;;;;;;;;;;;5061269;28;19916;-62
2022/10/23 10:48:50;;;;;;;;;;;;;;;;;;5067240;28;19928;-62
2022/10/23 10:51:17;;;;;;;;;;;;;;;;;;5084424;28;19957;-62
2022/10/23 10:53:43;;;;;;;;;;;;;;;;;;5085405;27;19923;-63
2022/10/23 10:56:13;;;;;;;;;;;;;;;;;;5086969;28;19920;-62
2022/10/23 10:58:41;;;;;;;;;;;;;;;;;;5062657;28;19920;-62
2022/10/23 11:01:08;;;;;;;;;;;;;;;;;;5086381;28;19965;-61
2022/10/23 11:03:35;;;;;;;;;;;;;;;;;;5066882;28;19928;-63
2022/10/23 11:06:00;;;;;;;;;;;;;;;;;;5066441;28;20374;-63
2022/10/23 11:08:30;;;;;;;;;;;;;;;;;;5064404;28;19955;-63
2022/10/23 11:10:58;;;;;;;;;;;;;;;;;;5084833;28;20286;-62
2022/10/23 11:13:24;;;;;;;;;;;;;;;;;;5067347;28;20565;-61
2022/10/23 11:15:54;;;;;;;;;;;;;;;;;;5087968;28;21011;-61
2022/10/23 11:18:19;;;;;;;;;;;;;;;;;;5067029;28;20035;-61
2022/10/23 11:20:49;;;;;;;;;;;;;;;;;;5063584;28;20522;-62
2022/10/23 11:23:17;;;;;;;;;;;;;;;;;;5066164;28;19931;-61
2022/10/23 11:25:42;;;;;;;;;;;;;;;;;;5085449;28;19920;-63
2022/10/23 11:28:08;;;;;;;;;;;;;;;;;;5062417;28;19920;-61
2022/10/23 11:30:33;;;;;;;;;;;;;;;;;;5083643;28;20001;-62
2022/10/23 11:32:59;;;;;;;;;;;;;;;;;;5085909;28;20477;-62
2022/10/23 11:35:24;;;;;;;;;;;;;;;;;;5086146;28;20006;-62
2022/10/23 11:37:52;;;;;;;;;;;;;;;;;;5084909;28;19928;-63
2022/10/23 11:40:17;;;;;;;;;;;;;;;;;;5053796;28;19973;-61
2022/10/23 11:42:42;;;;;;;;;;;;;;;;;;5044594;28;20519;-60
2022/10/23 11:45:08;;;;;;;;;;;;;;;;;;5064493;28;20942;-61
2022/10/23 11:47:34;;;;;;;;;;;;;;;;;;5042767;28;20589;-63
2022/10/23 11:50:01;;;;;;;;;;;;;;;;;;5042494;28;19923;-62
2022/10/23 11:52:29;;;;;;;;;;;;;;;;;;5019822;28;19966;-62
2022/10/23 11:54:57;;;;;;;;;;;;;;;;;;5061640;28;19920;-61
2022/10/23 11:57:22;;;;;;;;;;;;;;;;;;5045675;28;20019;-61
2022/10/23 11:59:53;;;;;;;;;;;;;;;;;;5043443;28;19928;-63
2022/10/23 12:02:19;;;;;;;;;;;;;;;;;;5041883;28;21335;-63
2022/10/23 12:04:45;;;;;;;;;;;;;;;;;;5061028;28;19920;-62
2022/10/23 12:07:10;;;;;;;;;;;;;;;;;;5041634;28;20750;-62
2022/10/23 12:09:36;;;;;;;;;;;;;;;;;;5025048;28;19931;-62
2022/10/23 12:12:01;;;;;;;;;;;;;;;;;;5063809;28;20030;-62
2022/10/23 12:14:26;;;;;;;;;;;;;;;;;;5063924;28;19935;-62
2022/10/23 12:16:54;;;;;;;;;;;;;;;;;;5063985;28;19935;-63
2022/10/23 12:19:19;;;;;;;;;;;;;;;;;;5042378;28;19928;-63
2022/10/23 12:21:47;;;;;;;;;;;;;;;;;;5042513;28;22008;-62
2022/10/23 12:24:13;;;;;;;;;;;;;;;;;;5062948;28;21137;-62
2022/10/23 12:26:41;;;;;;;;;;;;;;;;;;5061377;28;19989;-63
2022/10/23 12:29:07;;;;;;;;;;;;;;;;;;5042424;28;21325;-63
2022/10/23 12:31:33;;;;;;;;;;;;;;;;;;5063913;28;19931;-62
2022/10/23 12:33:59;;;;;;;;;;;;;;;;;;5062775;28;19920;-63
2022/10/23 12:36:25;;;;;;;;;;;;;;;;;;5044734;28;19920;-64
2022/10/23 12:38:54;;;;;;;;;;;;;;;;;;5044095;28;19989;-63
2022/10/23 12:41:20;;;;;;;;;;;;;;;;;;5070865;28;19923;-63
2022/10/23 12:43:45;;;;;;;;;;;;;;;;;;5089446;28;19930;-62
2022/10/23 12:46:13;;;;;;;;;;;;;;;;;;5088561;28;20008;-62
2022/10/23 12:48:40;;;;;;;;;;;;;;;;;;5092045;27;19927;-64
2022/10/23 12:51:08;;;;;;;;;;;;;;;;;;5080198;28;19920;-62
2022/10/23 12:53:35;;;;;;;;;;;;;;;;;;5055415;28;19916;-62
2022/10/23 12:56:05;;;;;;;;;;;;;;;;;;5090954;27;19916;-63
2022/10/23 12:58:33;;;;;;;;;;;;;;;;;;5084506;28;20338;-62
2022/10/23 13:00:59;;;;;;;;;;;;;;;;;;5090978;28;19958;-62
2022/10/23 13:03:26;;;;;;;;;;;;;;;;;;5070328;28;20306;-61
2022/10/23 13:05:54;;;;;;;;;;;;;;;;;;5051436;28;19916;-62
2022/10/23 13:08:19;;;;;;;;;;;;;;;;;;5090538;28;19950;-62
2022/10/23 13:10:47;;;;;;;;;;;;;;;;;;5067146;28;20011;-62
2022/10/23 13:13:15;;;;;;;;;;;;;;;;;;5090889;28;20994;-62
2022/10/23 13:15:40;;;;;;;;;;;;;;;;;;5065228;28;20038;-61
2022/10/23 13:18:08;;;;;;;;;;;;;;;;;;5088462;28;20011;-62
2022/10/23 13:20:39;;;;;;;;;;;;;;;;;;5071166;28;19955;-62
2022/10/23 13:23:05;;;;;;;;;;;;;;;;;;5083125;28;19965;-62
2022/10/23 13:25:30;;;;;;;;;;;;;;;;;;5085107;28;19924;-62
2022/10/23 13:27:56;;;;;;;;;;;;;;;;;;5077582;28;19926;-61
2022/10/23 13:30:21;;;;;;;;;;;;;;;;;;5086486;28;19920;-63
2022/10/23 13:32:47;;;;;;;;;;;;;;;;;;5067168;28;19927;-63
2022/10/23 13:35:14;;;;;;;;;;;;;;;;;;5068677;28;19920;-62
2022/10/23 13:37:42;;;;;;;;;;;;;;;;;;5066731;28;20405;-62
2022/10/23 13:40:09;;;;;;;;;;;;;;;;;;5087332;28;19950;-62
2022/10/23 13:42:36;;;;;;;;;;;;;;;;;;5087051;28;19973;-62
2022/10/23 13:45:07;;;;;;;;;;;;;;;;;;5070896;28;19924;-60
2022/10/23 13:47:33;;;;;;;;;;;;;;;;;;5083837;28;20191;-61
2022/10/23 13:49:59;;;;;;;;;;;;;;;;;;5086315;27;20433;-62
2022/10/23 13:52:29;;;;;;;;;;;;;;;;;;5056992;28;20046;-62
2022/10/23 13:54:54;;;;;;;;;;;;;;;;;;5082414;28;19919;-62
2022/10/23 13:57:23;;;;;;;;;;;;;;;;;;5068674;28;19924;-62
2022/10/23 13:59:48;;;;;;;;;;;;;;;;;;5089628;28;21900;-63
2022/10/23 14:02:13;;;;;;;;;;;;;;;;;;5070462;28;19916;-63
2022/10/23 14:04:38;;;;;;;;;;;;;;;;;;5053486;28;19955;-61
2022/10/23 14:07:06;;;;;;;;;;;;;;;;;;5058836;28;19931;-61
2022/10/23 14:09:32;;;;;;;;;;;;;;;;;;5064833;28;19970;-63
2022/10/23 14:11:57;;;;;;;;;;;;;;;;;;5086455;28;20050;-63
2022/10/23 14:14:23;;;;;;;;;;;;;;;;;;5085861;28;19923;-62
2022/10/23 14:16:48;;;;;;;;;;;;;;;;;;5082267;28;19919;-63
2022/10/23 14:19:14;;;;;;;;;;;;;;;;;;5083851;28;20306;-62
2022/10/23 14:21:39;;;;;;;;;;;;;;;;;;5081131;28;20054;-62
2022/10/23 14:24:07;;;;;;;;;;;;;;;;;;5065911;28;19934;-62
2022/10/23 14:26:33;;;;;;;;;;;;;;;;;;5045435;28;19930;-62
2022/10/23 14:28:59;;;;;;;;;;;;;;;;;;5084368;28;20018;-62
2022/10/23 14:31:25;;;;;;;;;;;;;;;;;;5077329;27;20546;-62
2022/10/23 14:33:50;;;;;;;;;;;;;;;;;;5081782;27;20825;-61
2022/10/23 14:36:18;;;;;;;;;;;;;;;;;;5085057;28;19923;-61
2022/10/23 14:38:43;;;;;;;;;;;;;;;;;;5065151;28;19920;-62
2022/10/23 14:41:08;;;;;;;;;;;;;;;;;;5059630;28;19935;-61
2022/10/23 14:43:36;;;;;;;;;;;;;;;;;;5081923;27;19922;-62
2022/10/23 14:46:01;;;;;;;;;;;;;;;;;;5038914;28;20184;-63
2022/10/23 14:48:29;;;;;;;;;;;;;;;;;;5080811;27;19972;-62
2022/10/23 14:50:55;;;;;;;;;;;;;;;;;;5058860;28;19924;-63
2022/10/23 14:53:20;;;;;;;;;;;;;;;;;;5057358;28;20109;-63
2022/10/23 14:55:46;;;;;;;;;;;;;;;;;;5066788;28;20447;-62
2022/10/23 14:58:14;;;;;;;;;;;;;;;;;;5080164;27;19926;-63
2022/10/23 15:00:40;;;;;;;;;;;;;;;;;;5061801;28;20286;-61
2022/10/23 15:03:08;;;;;;;;;;;;;;;;;;5081649;28;20042;-63
2022/10/23 15:05:36;;;;;;;;;;;;;;;;;;5063158;28;19919;-61
2022/10/23 15:08:03;;;;;;;;;;;;;;;;;;5064120;28;19954;-62
2022/10/23 15:10:29;;;;;;;;;;;;;;;;;;5045866;28;19919;-63
2022/10/23 15:12:56;;;;;;;;;;;;;;;;;;5084576;28;19930;-60
2022/10/23 15:15:22;;;;;;;;;;;;;;;;;;5084158;28;19916;-62
2022/10/23 15:17:48;;;;;;;;;;;;;;;;;;5064124;28;20919;-62
2022/10/23 15:20:13;;;;;;;;;;;;;;;;;;5067269;27;19919;-62
2022/10/23 15:22:38;;;;;;;;;;;;;;;;;;5061871;28;19927;-62
2022/10/23 15:25:06;;;;;;;;;;;;;;;;;;5068163;28;19919;-62
2022/10/23 15:27:36;;;;;;;;;;;;;;;;;;5085828;28;19919;-62
2022/10/23 15:30:04;;;;;;;;;;;;;;;;;;5062226;28;19920;-61
2022/10/23 15:32:30;;;;;;;;;;;;;;;;;;5052915;28;19916;-59
2022/10/23 15:34:58;;;;;;;;;;;;;;;;;;5058304;28;19927;-63
2022/10/23 15:37:24;;;;;;;;;;;;;;;;;;5065399;28;19916;-62
2022/10/23 15:39:49;;;;;;;;;;;;;;;;;;5062904;28;19976;-63
2022/10/23 15:42:17;;;;;;;;;;;;;;;;;;5082666;28;19978;-62
2022/10/23 15:44:43;;;;;;;;;;;;;;;;;;5068910;28;19927;-62
2022/10/23 15:47:08;;;;;;;;;;;;;;;;;;5070689;28;19916;-62
2022/10/23 15:49:36;;;;;;;;;;;;;;;;;;5084156;28;19919;-62
2022/10/23 15:52:03;;;;;;;;;;;;;;;;;;5067025;28;19926;-61
2022/10/23 15:54:31;;;;;;;;;;;;;;;;;;5067257;28;19965;-63
2022/10/23 15:56:59;;;;;;;;;;;;;;;;;;5065433;28;20006;-63
2022/10/23 15:59:27;;;;;;;;;;;;;;;;;;5065668;28;20824;-63
2022/10/23 16:01:52;;;;;;;;;;;;;;;;;;5085540;28;20475;-61
2022/10/23 16:04:18;;;;;;;;;;;;;;;;;;5065589;28;19915;-63
2022/10/23 16:06:44;;;;;;;;;;;;;;;;;;5089160;28;20290;-64
2022/10/23 16:09:09;;;;;;;;;;;;;;;;;;5084800;28;20406;-63
2022/10/23 16:11:37;;;;;;;;;;;;;;;;;;5086902;28;19927;-63
2022/10/23 16:14:03;;;;;;;;;;;;;;;;;;5041698;28;19920;-61
2022/10/23 16:16:31;;;;;;;;;;;;;;;;;;5061127;28;19972;-62
2022/10/23 16:18:59;;;;;;;;;;;;;;;;;;5055359;28;20462;-61
2022/10/23 16:21:27;;;;;;;;;;;;;;;;;;5081030;28;19916;-62
2022/10/23 16:23:53;;;;;;;;;;;;;;;;;;5085847;28;20002;-61
2022/10/23 16:26:18;;;;;;;;;;;;;;;;;;5086541;28;19920;-63
2022/10/23 16:28:43;;;;;;;;;;;;;;;;;;5064206;28;21908;-62
2022/10/23 16:31:09;;;;;;;;;;;;;;;;;;5085317;28;19920;-61
2022/10/23 16:33:37;;;;;;;;;;;;;;;;;;5064969;28;19920;-62
2022/10/23 16:36:02;;;;;;;;;;;;;;;;;;5063903;28;19969;-61
2022/10/23 16:38:32;;;;;;;;;;;;;;;;;;5087559;28;19926;-59
2022/10/23 16:40:57;;;;;;;;;;;;;;;;;;5084115;28;20023;-62
2022/10/23 16:43:23;;;;;;;;;;;;;;;;;;5079992;28;20615;-62
2022/10/23 16:45:49;;;;;;;;;;;;;;;;;;5082841;28;19923;-62
2022/10/23 16:48:14;;;;;;;;;;;;;;;;;;5064032;28;19920;-61
2022/10/23 16:50:40;;;;;;;;;;;;;;;;;;5046852;28;19954;-63
2022/10/23 16:53:05;;;;;;;;;;;;;;;;;;5065978;28;20116;-63
2022/10/23 16:55:31;;;;;;;;;;;;;;;;;;5064304;28;19915;-63
2022/10/23 16:58:00;;;;;;;;;;;;;;;;;;5086805;28;20797;-61
2022/10/23 17:00:33;;;;;;;;;;;;;;;;;;5063395;28;19927;-62
2022/10/23 17:02:59;;;;;;;;;;;;;;;;;;5065069;28;19975;-61
2022/10/23 17:05:26;;;;;;;;;;;;;;;;;;5079736;28;20263;-61
2022/10/23 17:07:53;;;;;;;;;;;;;;;;;;5078878;28;19978;-61
2022/10/23 17:10:18;;;;;;;;;;;;;;;;;;5061011;28;20328;-61
2022/10/23 17:12:44;;;;;;;;;;;;;;;;;;5081726;28;20393;-61
2022/10/23 17:15:12;;;;;;;;;;;;;;;;;;5065839;28;19920;-62
2022/10/23 17:17:39;;;;;;;;;;;;;;;;;;5067459;28;19920;-61
2022/10/23 17:20:07;;;;;;;;;;;;;;;;;;5043009;28;19935;-62
2022/10/23 17:22:34;;;;;;;;;;;;;;;;;;5064355;28;20657;-62
2022/10/23 17:24:59;;;;;;;;;;;;;;;;;;5082187;28;19920;-60
2022/10/23 17:27:27;;;;;;;;;;;;;;;;;;5064918;28;19958;-63
2022/10/23 17:29:55;;;;;;;;;;;;;;;;;;5051980;28;19924;-62
2022/10/23 17:32:23;;;;;;;;;;;;;;;;;;5050334;28;19927;-62
2022/10/23 17:34:50;;;;;;;;;;;;;;;;;;5069617;28;19991;-62
2022/10/23 17:37:16;;;;;;;;;;;;;;;;;;5067142;28;20002;-62
2022/10/23 17:39:41;;;;;;;;;;;;;;;;;;5091599;27;19924;-63